Franklin, NC

12:52 PM EDT on August 18, 2017 (GMT -0400)
Franklin

Weather History for K1A5 - January, 2014

Change the Weather History Date:

Sunday, January 12, 2014

  Actual Average (KTOC) Record (KTOC)
Temperature  
Mean Temperature 40 °F -  
Max Temperature 55 °F 49 °F 75 °F (2017)
Min Temperature 26 °F 29 °F 28 °F (2016)
Degree Days  
Heating Degree Days 24    
Moisture  
Dew Point 27 °F    
Average Humidity 66    
Maximum Humidity 93    
Minimum Humidity 25    
Precipitation  
Precipitation 0.02 in - - ()
Sea Level Pressure  
Sea Level Pressure 30.07 in    
Wind  
Wind Speed 4 mph (NW)    
Max Wind Speed 10 mph    
Max Gust Speed 22 mph    
Visibility 10 miles    
Events      
Averages and records for this station are not official NWS values.
T = Trace of Precipitation, MM = Missing Value Source: NWS Daily Summary

Daily Weather History Graph

Daily Weather History Graph

Search for Another Location

Airport or City:

Trip Planner

Search our weather history database for the weather conditions in past years. The results will help you decide how hot, cold, wet, or windy it might be!

Date:

Astronomy

Jan. 12, 2014 Rise Set
Actual Time 7:42 AM EST 5:42 PM EST
Civil Twilight 7:14 AM EST 6:09 PM EST
Nautical Twilight 6:43 AM EST 6:41 PM EST
Astronomical Twilight 6:12 AM EST 7:11 PM EST
Moon 3:08 PM EST (1/12) 4:41 AM EST (1/12)
Length of Visible Light 10h 55m
Length of Day
9h 59m
Waxing Gibbous, 89% of the Moon is Illuminated
Jan 12
Waxing Gibbous
Jan 15
Full
Jan 24
Last Quarter
Jan 30
New
Feb 6
First Quarter

Hourly Weather History & Observations

Time (EST) Temp. Windchill Dew Point Humidity Pressure Visibility Wind Dir Wind Speed Gust Speed Precip Events Conditions
12:15 AM 42.8 °F 38.0 °F 29.3 °F 59% 29.90 in 10.0 mi NW 8.1 mph - N/A   Clear
12:35 AM 42.4 °F 37.5 °F 28.4 °F 58% 29.91 in 10.0 mi NW 8.1 mph - N/A   Clear
12:55 AM 42.4 °F 36.5 °F 28.8 °F 58% 29.92 in 10.0 mi WNW 10.4 mph 19.6 mph N/A   Clear
1:15 AM 41.9 °F 36.9 °F 28.8 °F 60% 29.92 in 10.0 mi WNW 8.1 mph 17.3 mph 0.01 in   Clear
1:35 AM 41.9 °F 36.9 °F 28.4 °F 59% 29.92 in 10.0 mi WNW 8.1 mph 21.9 mph 0.01 in   Clear
1:55 AM 41.2 °F 36.0 °F 28.2 °F 60% 29.94 in 10.0 mi WNW 8.1 mph - 0.01 in   Clear
2:15 AM 41.2 °F 37.3 °F 27.7 °F 59% 29.94 in 10.0 mi NW 5.8 mph - N/A   Clear
2:35 AM 40.6 °F 36.0 °F 28.0 °F 61% 29.96 in 10.0 mi NNW 6.9 mph - N/A   Clear
2:55 AM 40.3 °F 36.3 °F 27.7 °F 61% 29.96 in 10.0 mi NW 5.8 mph - N/A   Scattered Clouds
3:15 AM 39.4 °F 36.1 °F 28.0 °F 64% 29.97 in 10.0 mi NW 4.6 mph - 0.01 in   Clear
3:35 AM 34.7 °F - 28.6 °F 78% 29.97 in 10.0 mi Calm Calm - 0.01 in   Clear
3:55 AM 32.9 °F 28.5 °F 28.9 °F 85% 29.97 in 10.0 mi NW 4.6 mph - 0.01 in   Clear
4:15 AM 34.7 °F 31.8 °F 28.2 °F 77% 29.98 in 10.0 mi WNW 3.5 mph - N/A   Clear
4:35 AM 38.5 °F - 28.2 °F 67% 29.98 in 10.0 mi Calm Calm - N/A   Clear
4:55 AM 37.0 °F - 28.0 °F 70% 29.98 in 10.0 mi Calm Calm - N/A   Clear
5:15 AM 34.9 °F 32.0 °F 28.0 °F 76% 29.99 in 10.0 mi West 3.5 mph - N/A   Clear
5:35 AM 32.0 °F - 27.9 °F 85% 29.99 in 10.0 mi Calm Calm - N/A   Scattered Clouds
5:55 AM 31.6 °F - 28.0 °F 87% 29.99 in 10.0 mi Calm Calm - N/A   Scattered Clouds
6:15 AM 30.7 °F - 27.5 °F 88% 29.98 in 10.0 mi Calm Calm - N/A   Clear
6:35 AM 29.8 °F - 27.3 °F 90% 29.99 in 10.0 mi Calm Calm - N/A   Scattered Clouds
6:55 AM 32.0 °F - 29.1 °F 89% 30.00 in 10.0 mi Calm Calm - N/A   Clear
7:15 AM 36.5 °F 30.3 °F 29.1 °F 75% 30.00 in 10.0 mi North 8.1 mph - N/A   Clear
7:35 AM 37.4 °F 32.1 °F 28.9 °F 71% 30.03 in 10.0 mi NNE 6.9 mph - N/A   Clear
7:55 AM 32.9 °F 28.5 °F 28.4 °F 84% 30.04 in 10.0 mi ENE 4.6 mph - N/A   Clear
8:15 AM 31.3 °F - 27.7 °F 87% 30.06 in 10.0 mi Calm Calm - N/A   Clear
8:35 AM 31.1 °F 27.7 °F 28.8 °F 91% 30.08 in 10.0 mi WSW 3.5 mph - N/A   Clear
8:55 AM 32.4 °F - 29.8 °F 90% 30.09 in 10.0 mi Calm Calm - N/A   Clear
9:15 AM 34.7 °F - 30.4 °F 84% 30.10 in 10.0 mi Calm Calm - N/A   Clear
9:35 AM 37.4 °F - 31.6 °F 80% 30.10 in 10.0 mi Calm Calm - N/A   Clear
9:55 AM 41.0 °F - 31.8 °F 70% 30.11 in 10.0 mi Calm Calm - N/A   Clear
10:15 AM 44.2 °F - 31.1 °F 60% 30.12 in 10.0 mi Calm Calm - N/A   Clear
10:35 AM 45.9 °F - 30.0 °F 54% 30.13 in 10.0 mi Calm Calm - N/A   Clear
10:55 AM 46.8 °F - 28.8 °F 50% 30.13 in 10.0 mi NNW 5.8 mph - N/A   Clear
11:15 AM 48.2 °F - 27.1 °F 44% 30.13 in 10.0 mi North 5.8 mph - N/A   Clear
11:35 AM 49.1 °F - 25.5 °F 40% 30.13 in 10.0 mi NNW 6.9 mph - N/A   Clear
11:55 AM 49.3 °F - 22.6 °F 35% 30.12 in 10.0 mi NNW 5.8 mph - N/A   Clear
12:15 PM 50.2 °F - 22.3 °F 34% 30.11 in 10.0 mi North 9.2 mph - N/A   Clear
12:35 PM 50.7 °F - 21.6 °F 32% 30.11 in 10.0 mi NNW 9.2 mph - N/A   Clear
12:55 PM 51.1 °F - 19.0 °F 28% 30.09 in 10.0 mi NNW 5.8 mph - N/A   Clear
1:15 PM 51.8 °F - 19.6 °F 28% 30.09 in 10.0 mi NNW 4.6 mph - N/A   Clear
1:35 PM 52.5 °F - 20.3 °F 28% 30.09 in 10.0 mi Calm Calm - N/A   Clear
1:55 PM 53.2 °F - 19.4 °F 27% 30.09 in 10.0 mi Calm Calm - N/A   Clear
2:15 PM 54.1 °F - 19.8 °F 26% 30.09 in 10.0 mi East 3.5 mph - N/A   Clear
2:35 PM 55.0 °F - 20.7 °F 26% 30.09 in 10.0 mi Calm Calm - N/A   Clear
2:55 PM 55.2 °F - 22.1 °F 28% 30.09 in 10.0 mi SSE 5.8 mph - N/A   Clear
3:15 PM 54.9 °F - 21.7 °F 28% 30.09 in 10.0 mi SSE 3.5 mph - N/A   Clear
3:35 PM 55.2 °F - 20.8 °F 26% 30.09 in 10.0 mi Calm Calm - N/A   Clear
3:55 PM 55.4 °F - 20.1 °F 25% 30.09 in 10.0 mi Calm Calm - N/A   Clear
4:15 PM 55.0 °F - 21.2 °F 27% 30.09 in 10.0 mi Calm Calm - N/A   Clear
4:35 PM 54.1 °F - 22.8 °F 30% 30.09 in 10.0 mi Calm Calm - N/A   Clear
4:55 PM 50.9 °F - 27.3 °F 40% 30.10 in 10.0 mi Calm Calm - N/A   Clear
5:15 PM 45.3 °F - 33.6 °F 64% 30.11 in 10.0 mi Calm Calm - N/A   Clear
5:35 PM 41.2 °F 38.2 °F 32.4 °F 71% 30.12 in 10.0 mi WSW 4.6 mph - N/A   Clear
5:55 PM 39.6 °F - 32.2 °F 75% 30.13 in 10.0 mi Calm Calm - N/A   Clear
6:15 PM 36.9 °F 34.3 °F 32.0 °F 83% 30.13 in 10.0 mi WSW 3.5 mph - N/A   Clear
6:35 PM 36.1 °F - 32.0 °F 85% 30.14 in 10.0 mi Calm Calm - N/A   Clear
6:55 PM 35.1 °F - 31.8 °F 88% 30.14 in 10.0 mi Calm Calm - N/A   Clear
7:15 PM 32.7 °F - 29.5 °F 88% 30.15 in 10.0 mi Calm Calm - N/A   Clear
7:35 PM 32.0 °F - 28.8 °F 88% 30.16 in 10.0 mi Calm Calm - N/A   Clear
7:55 PM 32.2 °F - 30.4 °F 93% 30.17 in 10.0 mi Calm Calm - N/A   Clear
8:15 PM 30.9 °F - 27.7 °F 88% 30.17 in 10.0 mi Calm Calm - N/A   Clear
8:35 PM 30.9 °F - 28.4 °F 90% 30.17 in 10.0 mi Calm Calm - N/A   Clear
8:55 PM 30.9 °F - 28.4 °F 90% 30.18 in 10.0 mi Calm Calm - N/A   Clear
9:15 PM 29.5 °F - 27.3 °F 92% 30.18 in 10.0 mi Calm Calm - N/A   Clear
9:35 PM 29.8 °F - 28.0 °F 93% 30.18 in 10.0 mi Calm Calm - N/A   Clear
9:55 PM 28.6 °F - 26.4 °F 92% 30.18 in 10.0 mi Calm Calm - N/A   Clear
10:15 PM 28.8 °F - 26.6 °F 92% 30.18 in 10.0 mi Calm Calm - N/A   Clear
10:35 PM 28.0 °F - 26.2 °F 93% 30.18 in 10.0 mi Calm Calm - N/A   Clear
10:55 PM 27.0 °F - 25.2 °F 93% 30.18 in 10.0 mi Calm Calm - N/A   Clear
11:15 PM 27.1 °F - 25.2 °F 92% 30.18 in 10.0 mi Calm Calm - N/A   Clear
11:35 PM 26.2 °F - 24.3 °F 92% 30.18 in 10.0 mi Calm Calm - N/A   Clear
11:55 PM 26.4 °F - 24.4 °F 92% 30.18 in 10.0 mi Calm Calm - N/A   Clear